createdAt,value
2023-01-27T00:03:44.969Z,15.40
2023-01-27T00:07:47.042Z,16.77
2023-01-27T00:11:59.692Z,17.03
2023-01-27T00:16:02.639Z,15.77
2023-01-27T00:20:03.964Z,15.10
2023-01-27T00:24:16.784Z,16.37
2023-01-27T00:28:22.922Z,15.87
2023-01-27T00:32:38.132Z,16.43
2023-01-27T00:36:39.916Z,16.47
2023-01-27T00:40:40.050Z,16.00
2023-01-27T00:45:00.184Z,16.03
2023-01-27T00:49:03.038Z,15.83
2023-01-27T00:53:03.709Z,14.80
2023-01-27T00:57:04.432Z,15.60
2023-01-27T01:01:08.031Z,14.70
2023-01-27T01:05:11.834Z,15.13
2023-01-27T01:09:11.858Z,13.90
2023-01-27T01:13:12.376Z,13.80
2023-01-27T01:17:12.517Z,14.03
2023-01-27T01:21:16.298Z,12.97
2023-01-27T01:25:16.622Z,13.33
2023-01-27T01:29:16.921Z,13.67
2023-01-27T01:33:17.085Z,13.07
2023-01-27T01:37:19.883Z,12.40
2023-01-27T01:41:23.002Z,12.80
2023-01-27T01:45:50.558Z,13.03
2023-01-27T01:49:51.227Z,12.67
2023-01-27T01:54:00.876Z,13.33
2023-01-27T01:58:01.353Z,12.63
2023-01-27T02:02:07.779Z,12.30
2023-01-27T02:06:09.347Z,12.77
2023-01-27T02:10:14.021Z,12.40
2023-01-27T02:14:18.945Z,12.17
2023-01-27T02:18:22.278Z,12.53
2023-01-27T02:22:31.556Z,12.93
2023-01-27T02:26:39.948Z,11.87
2023-01-27T02:30:40.195Z,12.77
2023-01-27T02:34:41.420Z,12.17
2023-01-27T02:38:49.335Z,12.63
2023-01-27T02:42:52.795Z,12.23
2023-01-27T02:46:53.171Z,12.60
2023-01-27T02:50:56.172Z,12.10
2023-01-27T02:54:56.280Z,11.60
2023-01-27T02:58:59.179Z,11.20
2023-01-27T03:03:07.727Z,10.97
2023-01-27T03:07:07.940Z,10.80
2023-01-27T03:11:08.890Z,11.13
2023-01-27T03:15:26.019Z,10.67
2023-01-27T03:19:26.882Z,10.70
2023-01-27T03:23:27.843Z,11.17
2023-01-27T03:27:28.151Z,11.27
2023-01-27T03:31:54.770Z,10.90
2023-01-27T03:36:07.680Z,11.70
2023-01-27T03:40:24.713Z,11.30
2023-01-27T03:44:37.324Z,11.40
2023-01-27T03:48:40.583Z,9.87
2023-01-27T03:52:40.698Z,11.37
2023-01-27T03:56:40.713Z,10.73
2023-01-27T04:00:40.767Z,10.50
2023-01-27T04:04:55.876Z,11.37
2023-01-27T04:08:56.485Z,10.97
2023-01-27T04:12:56.566Z,10.77
2023-01-27T04:16:59.772Z,11.03
2023-01-27T04:21:02.404Z,10.30
2023-01-27T04:25:02.682Z,11.77
2023-01-27T04:29:03.424Z,16.53
2023-01-27T04:33:05.464Z,13.77
2023-01-27T04:37:09.872Z,12.10
2023-01-27T04:41:09.931Z,11.27
2023-01-27T04:45:12.637Z,11.47
2023-01-27T04:49:13.900Z,10.87
2023-01-27T04:53:16.653Z,10.93
2023-01-27T04:57:16.777Z,10.90
2023-01-27T05:01:16.810Z,11.57
2023-01-27T05:05:16.944Z,10.83
2023-01-27T05:09:20.079Z,10.73
2023-01-27T05:13:20.097Z,11.00
2023-01-27T05:17:20.298Z,11.00
2023-01-27T05:21:23.265Z,11.03
2023-01-27T05:25:25.837Z,11.97
2023-01-27T05:29:26.468Z,12.23
2023-01-27T05:33:26.538Z,11.70
2023-01-27T05:37:26.669Z,11.33
2023-01-27T05:41:31.538Z,10.73
2023-01-27T05:45:31.581Z,12.40
2023-01-27T05:49:31.957Z,11.93
2023-01-27T05:53:32.146Z,11.17
2023-01-27T05:57:34.806Z,11.10
2023-01-27T06:01:37.761Z,11.30
2023-01-27T06:05:38.351Z,11.87
2023-01-27T06:09:38.934Z,12.00
2023-01-27T06:13:41.910Z,11.03
2023-01-27T06:17:42.178Z,11.43
2023-01-27T06:21:42.217Z,12.00
2023-01-27T06:25:44.763Z,11.90
2023-01-27T06:29:47.638Z,10.93
2023-01-27T06:33:48.345Z,12.10
2023-01-27T06:37:50.086Z,11.03
2023-01-27T06:41:52.200Z,11.87
2023-01-27T06:45:57.684Z,10.50
2023-01-27T06:49:57.878Z,10.83
2023-01-27T06:53:57.896Z,9.50
2023-01-27T06:57:58.178Z,8.77
2023-01-27T07:02:01.991Z,9.53
2023-01-27T07:06:02.202Z,9.03
2023-01-27T07:10:02.310Z,9.20
2023-01-27T07:14:03.118Z,9.20
2023-01-27T07:18:07.432Z,9.50
2023-01-27T07:22:08.181Z,9.20
2023-01-27T07:26:23.321Z,11.90
2023-01-27T07:30:25.006Z,9.93
2023-01-27T07:34:27.905Z,8.80
2023-01-27T07:38:27.988Z,8.50
2023-01-27T07:42:28.175Z,8.87
2023-01-27T07:46:28.438Z,10.87
2023-01-27T07:50:31.245Z,9.50
2023-01-27T07:54:39.311Z,9.23
2023-01-27T07:58:39.397Z,9.17
2023-01-27T08:02:39.468Z,8.87
2023-01-27T08:06:43.666Z,9.30
2023-01-27T08:10:48.282Z,9.67
2023-01-27T08:15:40.770Z,9.03
2023-01-27T08:19:40.849Z,8.50
2023-01-27T08:23:43.641Z,8.87
2023-01-27T08:27:43.749Z,9.20
2023-01-27T08:31:44.385Z,8.33
2023-01-27T08:35:45.443Z,8.67
2023-01-27T08:39:48.109Z,8.57
2023-01-27T08:43:49.405Z,8.33
2023-01-27T08:47:49.555Z,8.63
2023-01-27T08:51:49.680Z,8.10
2023-01-27T08:55:54.675Z,8.10
2023-01-27T08:59:58.198Z,8.40
2023-01-27T09:08:35.036Z,9.13
2023-01-27T09:12:37.732Z,9.10
2023-01-27T09:16:37.975Z,10.53
2023-01-27T09:20:38.398Z,9.83
2023-01-27T09:24:40.400Z,10.00
2023-01-27T09:28:43.184Z,10.00
2023-01-27T09:32:44.228Z,9.50
2023-01-27T09:36:51.041Z,9.73
2023-01-27T09:41:26.677Z,8.43
2023-01-27T09:46:10.052Z,10.70
2023-01-27T09:50:42.527Z,10.60
2023-01-27T09:55:00.547Z,8.27
2023-01-27T09:59:28.499Z,8.40
2023-01-27T10:03:59.250Z,8.43
2023-01-27T10:08:24.807Z,8.77
2023-01-27T10:12:47.834Z,8.77
2023-01-27T10:17:21.579Z,7.97
2023-01-27T10:21:37.012Z,7.90
2023-01-27T10:25:55.490Z,8.13
2023-01-27T10:30:02.696Z,7.70
2023-01-27T10:34:21.611Z,7.20
2023-01-27T10:38:42.056Z,7.27
2023-01-27T10:42:52.178Z,7.30
2023-01-27T10:47:04.298Z,7.97
2023-01-27T10:51:11.669Z,6.93
2023-01-27T10:55:25.668Z,7.63
2023-01-27T10:59:37.211Z,6.47
2023-01-27T11:03:45.046Z,6.37
2023-01-27T11:08:05.710Z,7.00
2023-01-27T11:12:14.649Z,6.93
2023-01-27T11:16:20.415Z,5.80
2023-01-27T11:20:35.159Z,5.87
2023-01-27T11:29:35.316Z,5.60
2023-01-27T11:33:58.218Z,8.13
2023-01-27T11:38:14.922Z,8.10
2023-01-27T11:42:17.362Z,13.97
2023-01-27T11:46:27.456Z,7.03
2023-01-27T11:50:33.490Z,7.00
2023-01-27T11:54:39.451Z,6.27
2023-01-27T11:58:46.713Z,6.50
2023-01-27T12:03:00.940Z,6.00
2023-01-27T12:07:08.395Z,6.90
2023-01-27T12:11:36.805Z,6.00
2023-01-27T12:15:40.239Z,6.03
2023-01-27T12:19:52.091Z,5.70
2023-01-27T12:23:59.310Z,5.47
2023-01-27T12:28:05.591Z,5.40
2023-01-27T12:32:22.115Z,5.70
2023-01-27T12:36:29.148Z,5.33
2023-01-27T12:40:32.370Z,5.13
2023-01-27T12:45:22.195Z,6.90
2023-01-27T12:49:28.661Z,6.60
2023-01-27T12:53:31.547Z,6.30
2023-01-27T12:57:35.891Z,5.93
2023-01-27T13:01:41.493Z,6.00
2023-01-27T13:05:46.136Z,5.40
2023-01-27T13:09:58.741Z,5.30
2023-01-27T13:14:01.365Z,5.27
2023-01-27T13:18:03.594Z,5.60
2023-01-27T13:22:06.885Z,5.97
2023-01-27T13:26:19.149Z,5.97
2023-01-27T13:30:30.420Z,5.73
2023-01-27T13:34:53.304Z,4.83
2023-01-27T13:39:03.218Z,5.30
2023-01-27T13:43:15.175Z,7.10
2023-01-27T13:47:22.187Z,6.30
2023-01-27T13:51:26.536Z,5.30
2023-01-27T13:55:50.934Z,5.60
2023-01-27T14:00:10.793Z,5.40
2023-01-27T14:09:20.314Z,5.30
2023-01-27T14:13:55.064Z,5.30
2023-01-27T14:18:06.509Z,5.33
2023-01-27T14:22:19.461Z,5.43
2023-01-27T14:26:43.058Z,5.53
2023-01-27T14:30:47.131Z,5.33
2023-01-27T14:35:10.028Z,5.63
2023-01-27T14:39:23.801Z,5.77
2023-01-27T14:43:39.537Z,6.13
2023-01-27T14:47:54.458Z,6.70
2023-01-27T14:52:05.395Z,5.60
2023-01-27T14:56:15.503Z,6.20
2023-01-27T15:00:33.344Z,6.43
2023-01-27T15:04:54.018Z,6.07
2023-01-27T15:09:09.798Z,6.57
2023-01-27T15:13:40.058Z,6.90
2023-01-27T15:18:03.968Z,6.50
2023-01-27T15:22:42.074Z,7.10
2023-01-27T15:26:46.121Z,6.77
2023-01-27T15:31:23.029Z,7.40
2023-01-27T15:35:41.790Z,8.20
2023-01-27T15:40:05.603Z,7.63
2023-01-27T15:44:19.101Z,8.20
2023-01-27T15:48:27.381Z,9.37
2023-01-27T15:52:34.616Z,8.83
2023-01-27T15:56:50.455Z,9.90
2023-01-27T16:00:59.255Z,10.67
2023-01-27T16:05:18.284Z,10.03
2023-01-27T16:09:36.038Z,10.30
2023-01-27T16:13:38.780Z,10.13
2023-01-27T16:18:02.644Z,10.40
2023-01-27T16:22:07.557Z,10.30
2023-01-27T16:26:25.467Z,10.83
2023-01-27T16:30:30.589Z,10.43
2023-01-27T16:34:40.974Z,10.93
2023-01-27T16:38:45.865Z,13.57
2023-01-27T16:43:04.908Z,11.07
2023-01-27T16:47:16.878Z,10.20
2023-01-27T16:51:26.039Z,10.53
2023-01-27T16:55:26.965Z,10.13
2023-01-27T16:59:31.128Z,10.03
2023-01-27T17:03:39.857Z,9.33
2023-01-27T17:07:42.465Z,9.50
2023-01-27T17:11:46.052Z,10.10
2023-01-27T17:15:47.239Z,9.97
2023-01-27T17:19:51.562Z,9.60
2023-01-27T17:23:54.716Z,9.73
2023-01-27T17:27:55.316Z,9.83
2023-01-27T17:31:55.635Z,9.83
2023-01-27T17:36:00.062Z,9.87
2023-01-27T17:40:05.497Z,9.80
2023-01-27T17:44:14.014Z,9.80
2023-01-27T17:48:16.049Z,9.47
2023-01-27T17:52:23.865Z,7.93
2023-01-27T17:56:32.355Z,7.73
2023-01-27T18:00:38.365Z,8.43
2023-01-27T18:04:45.037Z,7.77
2023-01-27T18:08:54.919Z,8.10
2023-01-27T18:12:59.080Z,7.80
2023-01-27T18:17:05.545Z,7.67
2023-01-27T18:21:15.756Z,7.20
2023-01-27T18:25:21.776Z,8.20
2023-01-27T18:29:30.341Z,7.67
2023-01-27T18:33:30.620Z,6.53
2023-01-27T18:37:34.417Z,6.77
2023-01-27T18:41:38.174Z,7.93
2023-01-27T18:45:41.040Z,6.50
2023-01-27T18:49:41.145Z,6.20
2023-01-27T18:53:41.199Z,6.20
2023-01-27T18:57:41.581Z,5.47
2023-01-27T19:01:44.435Z,5.97
2023-01-27T19:05:44.632Z,6.47
2023-01-27T19:09:45.753Z,5.20
2023-01-27T19:13:46.460Z,6.13
2023-01-27T19:17:50.619Z,6.20
2023-01-27T19:21:50.787Z,5.70
2023-01-27T19:25:55.468Z,5.97
2023-01-27T19:29:55.779Z,6.00
2023-01-27T19:33:58.569Z,6.00
2023-01-27T19:38:00.401Z,6.20
2023-01-27T19:42:00.511Z,5.93
2023-01-27T19:46:00.952Z,5.37
2023-01-27T19:50:05.179Z,5.87
2023-01-27T19:54:05.325Z,5.90
2023-01-27T19:58:06.018Z,7.33
2023-01-27T20:02:06.253Z,9.43
2023-01-27T20:06:18.550Z,7.20
2023-01-27T20:10:22.926Z,7.13
2023-01-27T20:14:25.872Z,6.37
2023-01-27T20:18:26.867Z,7.63
2023-01-27T20:22:29.911Z,8.83
2023-01-27T20:26:31.441Z,7.20
2023-01-27T20:30:36.456Z,8.00
2023-01-27T20:34:38.737Z,8.20
2023-01-27T20:38:42.293Z,8.80
2023-01-27T20:42:42.511Z,6.40
2023-01-27T20:46:43.000Z,6.77
2023-01-27T20:50:43.015Z,7.97
2023-01-27T20:54:45.809Z,6.60
2023-01-27T20:58:46.480Z,8.10
2023-01-27T21:02:46.790Z,6.93
2023-01-27T21:06:46.937Z,7.57
2023-01-27T21:10:49.683Z,8.33
2023-01-27T21:14:49.919Z,8.00
2023-01-27T21:18:50.046Z,6.93
2023-01-27T21:22:50.380Z,6.90
2023-01-27T21:26:54.490Z,6.57
2023-01-27T21:30:54.575Z,7.57
2023-01-27T21:34:56.595Z,6.70
2023-01-27T21:38:58.029Z,6.23
2023-01-27T21:43:13.067Z,6.80
2023-01-27T21:47:15.951Z,6.87
2023-01-27T21:51:16.437Z,6.70
2023-01-27T21:55:20.638Z,6.77
